sensor_id;sensor_type;location;lat;lon;timestamp;P1;durP1;ratioP1;P2;durP2;ratioP2
62931;SDS011;49037;41.898;25.004;2023-07-20T00:01:44;8.07;;;4.38;;
62931;SDS011;49037;41.898;25.004;2023-07-20T00:05:34;7.90;;;5.13;;
62931;SDS011;49037;41.898;25.004;2023-07-20T00:08:01;6.72;;;4.65;;
62931;SDS011;49037;41.898;25.004;2023-07-20T00:10:27;8.23;;;4.60;;
62931;SDS011;49037;41.898;25.004;2023-07-20T00:12:57;6.65;;;4.43;;
62931;SDS011;49037;41.898;25.004;2023-07-20T00:15:49;4.88;;;3.95;;
62931;SDS011;49037;41.898;25.004;2023-07-20T00:23:03;7.93;;;4.43;;
62931;SDS011;49037;41.898;25.004;2023-07-20T00:25:37;6.63;;;4.72;;
62931;SDS011;49037;41.898;25.004;2023-07-20T00:30:14;7.28;;;4.45;;
62931;SDS011;49037;41.898;25.004;2023-07-20T00:35:35;7.35;;;4.80;;
62931;SDS011;49037;41.898;25.004;2023-07-20T00:38:00;7.15;;;4.18;;
62931;SDS011;49037;41.898;25.004;2023-07-20T00:42:48;7.28;;;4.97;;
62931;SDS011;49037;41.898;25.004;2023-07-20T00:48:15;6.88;;;4.93;;
62931;SDS011;49037;41.898;25.004;2023-07-20T00:51:31;5.95;;;3.97;;
62931;SDS011;49037;41.898;25.004;2023-07-20T00:54:19;7.85;;;4.45;;
62931;SDS011;49037;41.898;25.004;2023-07-20T01:14:25;9.18;;;5.20;;
62931;SDS011;49037;41.898;25.004;2023-07-20T01:16:57;7.05;;;4.53;;
62931;SDS011;49037;41.898;25.004;2023-07-20T01:23:00;8.77;;;5.07;;
62931;SDS011;49037;41.898;25.004;2023-07-20T01:25:54;8.20;;;5.03;;
62931;SDS011;49037;41.898;25.004;2023-07-20T01:32:00;6.93;;;4.80;;
62931;SDS011;49037;41.898;25.004;2023-07-20T01:34:41;9.30;;;5.07;;
62931;SDS011;49037;41.898;25.004;2023-07-20T01:37:08;8.63;;;5.15;;
62931;SDS011;49037;41.898;25.004;2023-07-20T01:39:35;5.57;;;4.68;;
62931;SDS011;49037;41.898;25.004;2023-07-20T01:44:20;7.20;;;5.00;;
62931;SDS011;49037;41.898;25.004;2023-07-20T01:46:48;8.43;;;4.80;;
62931;SDS011;49037;41.898;25.004;2023-07-20T02:04:07;7.63;;;5.03;;
62931;SDS011;49037;41.898;25.004;2023-07-20T02:06:35;7.82;;;5.43;;
62931;SDS011;49037;41.898;25.004;2023-07-20T02:09:01;9.13;;;5.38;;
62931;SDS011;49037;41.898;25.004;2023-07-20T02:13:36;9.65;;;5.15;;
62931;SDS011;49037;41.898;25.004;2023-07-20T02:16:28;9.88;;;5.57;;
62931;SDS011;49037;41.898;25.004;2023-07-20T02:19:25;8.95;;;5.05;;
62931;SDS011;49037;41.898;25.004;2023-07-20T02:22:04;8.70;;;5.00;;
62931;SDS011;49037;41.898;25.004;2023-07-20T02:26:19;8.77;;;5.38;;
62931;SDS011;49037;41.898;25.004;2023-07-20T02:28:47;10.13;;;5.10;;
62931;SDS011;49037;41.898;25.004;2023-07-20T02:31:22;8.20;;;5.43;;
62931;SDS011;49037;41.898;25.004;2023-07-20T02:33:47;8.23;;;4.88;;
62931;SDS011;49037;41.898;25.004;2023-07-20T02:36:13;8.63;;;5.47;;
62931;SDS011;49037;41.898;25.004;2023-07-20T02:38:40;7.75;;;5.50;;
62931;SDS011;49037;41.898;25.004;2023-07-20T02:41:26;9.10;;;5.72;;
62931;SDS011;49037;41.898;25.004;2023-07-20T02:44:06;8.32;;;5.43;;
62931;SDS011;49037;41.898;25.004;2023-07-20T02:46:35;9.55;;;5.45;;
62931;SDS011;49037;41.898;25.004;2023-07-20T02:49:45;9.85;;;5.20;;
62931;SDS011;49037;41.898;25.004;2023-07-20T03:04:49;6.68;;;5.30;;
62931;SDS011;49037;41.898;25.004;2023-07-20T03:07:30;9.20;;;5.50;;
62931;SDS011;49037;41.898;25.004;2023-07-20T03:31:06;9.50;;;6.10;;
62931;SDS011;49037;41.898;25.004;2023-07-20T03:34:22;6.93;;;5.32;;
62931;SDS011;49037;41.898;25.004;2023-07-20T03:39:53;9.90;;;4.95;;
62931;SDS011;49037;41.898;25.004;2023-07-20T03:42:19;8.30;;;4.82;;
62931;SDS011;49037;41.898;25.004;2023-07-20T03:44:47;9.45;;;5.00;;
62931;SDS011;49037;41.898;25.004;2023-07-20T03:47:13;9.38;;;5.15;;
62931;SDS011;49037;41.898;25.004;2023-07-20T03:49:38;8.80;;;5.32;;
62931;SDS011;49037;41.898;25.004;2023-07-20T03:52:04;8.60;;;5.40;;
62931;SDS011;49037;41.898;25.004;2023-07-20T03:54:30;10.02;;;5.47;;
62931;SDS011;49037;41.898;25.004;2023-07-20T03:57:04;6.25;;;5.00;;
62931;SDS011;49037;41.898;25.004;2023-07-20T03:59:32;13.13;;;5.68;;
62931;SDS011;49037;41.898;25.004;2023-07-20T04:02:18;6.95;;;5.28;;
62931;SDS011;49037;41.898;25.004;2023-07-20T04:04:46;8.70;;;5.47;;
62931;SDS011;49037;41.898;25.004;2023-07-20T04:08:49;8.15;;;5.50;;
62931;SDS011;49037;41.898;25.004;2023-07-20T04:11:20;10.60;;;5.55;;
62931;SDS011;49037;41.898;25.004;2023-07-20T04:13:48;9.50;;;6.03;;
62931;SDS011;49037;41.898;25.004;2023-07-20T04:16:16;8.93;;;5.97;;
62931;SDS011;49037;41.898;25.004;2023-07-20T04:18:41;9.85;;;5.93;;
62931;SDS011;49037;41.898;25.004;2023-07-20T04:21:08;8.63;;;5.22;;
62931;SDS011;49037;41.898;25.004;2023-07-20T04:26:03;7.90;;;5.50;;
62931;SDS011;49037;41.898;25.004;2023-07-20T04:28:57;7.47;;;5.22;;
62931;SDS011;49037;41.898;25.004;2023-07-20T04:31:24;10.52;;;5.13;;
62931;SDS011;49037;41.898;25.004;2023-07-20T04:45:31;9.95;;;5.80;;
62931;SDS011;49037;41.898;25.004;2023-07-20T04:47:56;6.55;;;5.28;;
62931;SDS011;49037;41.898;25.004;2023-07-20T04:50:22;7.03;;;5.40;;
62931;SDS011;49037;41.898;25.004;2023-07-20T04:54:16;7.63;;;5.57;;
62931;SDS011;49037;41.898;25.004;2023-07-20T04:56:46;9.68;;;5.85;;
62931;SDS011;49037;41.898;25.004;2023-07-20T04:59:12;8.27;;;5.72;;
62931;SDS011;49037;41.898;25.004;2023-07-20T05:01:37;8.65;;;5.35;;
62931;SDS011;49037;41.898;25.004;2023-07-20T05:04:03;9.93;;;5.50;;
62931;SDS011;49037;41.898;25.004;2023-07-20T05:06:28;8.05;;;5.70;;
62931;SDS011;49037;41.898;25.004;2023-07-20T05:08:57;8.65;;;5.53;;
62931;SDS011;49037;41.898;25.004;2023-07-20T05:11:22;8.10;;;5.63;;
62931;SDS011;49037;41.898;25.004;2023-07-20T05:15:36;7.03;;;5.30;;
62931;SDS011;49037;41.898;25.004;2023-07-20T05:21:37;10.40;;;5.57;;
62931;SDS011;49037;41.898;25.004;2023-07-20T05:34:06;12.02;;;5.45;;
62931;SDS011;49037;41.898;25.004;2023-07-20T06:00:49;7.03;;;5.15;;
62931;SDS011;49037;41.898;25.004;2023-07-20T06:03:31;10.18;;;5.28;;
62931;SDS011;49037;41.898;25.004;2023-07-20T06:06:04;8.77;;;5.32;;
62931;SDS011;49037;41.898;25.004;2023-07-20T06:08:55;8.30;;;5.05;;
62931;SDS011;49037;41.898;25.004;2023-07-20T06:11:48;9.20;;;5.30;;
62931;SDS011;49037;41.898;25.004;2023-07-20T06:14:47;8.05;;;4.88;;
62931;SDS011;49037;41.898;25.004;2023-07-20T06:24:50;9.68;;;5.63;;
62931;SDS011;49037;41.898;25.004;2023-07-20T06:35:09;10.15;;;5.47;;
62931;SDS011;49037;41.898;25.004;2023-07-20T06:44:39;9.82;;;5.80;;
62931;SDS011;49037;41.898;25.004;2023-07-20T06:47:16;9.38;;;5.40;;
62931;SDS011;49037;41.898;25.004;2023-07-20T06:49:45;8.00;;;5.60;;
62931;SDS011;49037;41.898;25.004;2023-07-20T06:52:15;10.70;;;5.65;;
62931;SDS011;49037;41.898;25.004;2023-07-20T06:54:55;7.15;;;5.18;;
62931;SDS011;49037;41.898;25.004;2023-07-20T06:57:27;8.50;;;5.35;;
62931;SDS011;49037;41.898;25.004;2023-07-20T07:00:33;10.25;;;5.35;;
62931;SDS011;49037;41.898;25.004;2023-07-20T07:03:19;7.75;;;5.47;;
62931;SDS011;49037;41.898;25.004;2023-07-20T07:06:14;8.20;;;5.80;;
62931;SDS011;49037;41.898;25.004;2023-07-20T07:08:53;6.70;;;5.40;;
62931;SDS011;49037;41.898;25.004;2023-07-20T07:11:24;9.27;;;5.72;;
62931;SDS011;49037;41.898;25.004;2023-07-20T07:14:08;10.65;;;5.60;;
62931;SDS011;49037;41.898;25.004;2023-07-20T07:16:52;9.20;;;5.43;;
62931;SDS011;49037;41.898;25.004;2023-07-20T07:19:28;10.65;;;5.30;;
62931;SDS011;49037;41.898;25.004;2023-07-20T07:25:01;8.35;;;5.50;;
62931;SDS011;49037;41.898;25.004;2023-07-20T07:27:30;7.43;;;5.70;;
62931;SDS011;49037;41.898;25.004;2023-07-20T07:30:04;9.70;;;5.82;;
62931;SDS011;49037;41.898;25.004;2023-07-20T07:32:30;8.73;;;5.57;;
62931;SDS011;49037;41.898;25.004;2023-07-20T07:34:56;9.00;;;5.80;;
62931;SDS011;49037;41.898;25.004;2023-07-20T07:37:31;9.50;;;5.28;;
62931;SDS011;49037;41.898;25.004;2023-07-20T07:40:08;10.27;;;5.70;;
62931;SDS011;49037;41.898;25.004;2023-07-20T07:42:48;9.45;;;5.10;;
62931;SDS011;49037;41.898;25.004;2023-07-20T07:45:43;9.88;;;5.35;;
62931;SDS011;49037;41.898;25.004;2023-07-20T07:48:28;9.20;;;5.70;;
62931;SDS011;49037;41.898;25.004;2023-07-20T07:50:58;14.02;;;5.65;;
62931;SDS011;49037;41.898;25.004;2023-07-20T07:53:42;10.85;;;5.53;;
62931;SDS011;49037;41.898;25.004;2023-07-20T07:56:20;9.07;;;6.25;;
62931;SDS011;49037;41.898;25.004;2023-07-20T07:59:03;10.30;;;5.53;;
62931;SDS011;49037;41.898;25.004;2023-07-20T08:01:51;10.07;;;5.97;;
62931;SDS011;49037;41.898;25.004;2023-07-20T08:11:39;6.38;;;5.30;;
62931;SDS011;49037;41.898;25.004;2023-07-20T08:14:44;9.93;;;5.53;;
62931;SDS011;49037;41.898;25.004;2023-07-20T08:23:40;11.10;;;5.53;;
62931;SDS011;49037;41.898;25.004;2023-07-20T08:26:09;11.88;;;6.18;;
62931;SDS011;49037;41.898;25.004;2023-07-20T08:28:59;7.20;;;5.60;;
62931;SDS011;49037;41.898;25.004;2023-07-20T08:31:43;9.85;;;6.15;;
62931;SDS011;49037;41.898;25.004;2023-07-20T08:34:29;11.68;;;5.90;;
62931;SDS011;49037;41.898;25.004;2023-07-20T08:40:32;8.90;;;6.15;;
62931;SDS011;49037;41.898;25.004;2023-07-20T08:42:59;10.27;;;5.70;;
62931;SDS011;49037;41.898;25.004;2023-07-20T08:49:10;8.52;;;5.72;;
62931;SDS011;49037;41.898;25.004;2023-07-20T08:51:47;10.50;;;5.72;;
62931;SDS011;49037;41.898;25.004;2023-07-20T08:54:14;7.68;;;5.32;;
62931;SDS011;49037;41.898;25.004;2023-07-20T08:56:59;8.02;;;5.47;;
62931;SDS011;49037;41.898;25.004;2023-07-20T08:59:57;7.70;;;5.60;;
62931;SDS011;49037;41.898;25.004;2023-07-20T09:03:21;9.02;;;5.50;;
62931;SDS011;49037;41.898;25.004;2023-07-20T09:06:09;9.18;;;5.75;;
62931;SDS011;49037;41.898;25.004;2023-07-20T09:12:05;8.57;;;5.93;;
62931;SDS011;49037;41.898;25.004;2023-07-20T09:15:14;7.82;;;5.75;;
62931;SDS011;49037;41.898;25.004;2023-07-20T09:17:44;11.00;;;6.05;;
62931;SDS011;49037;41.898;25.004;2023-07-20T09:20:26;8.82;;;5.30;;
62931;SDS011;49037;41.898;25.004;2023-07-20T09:23:18;11.63;;;5.93;;
62931;SDS011;49037;41.898;25.004;2023-07-20T09:26:12;8.80;;;5.85;;
62931;SDS011;49037;41.898;25.004;2023-07-20T09:28:43;10.98;;;6.45;;
62931;SDS011;49037;41.898;25.004;2023-07-20T09:31:21;11.82;;;6.13;;
62931;SDS011;49037;41.898;25.004;2023-07-20T09:33:47;6.82;;;6.07;;
62931;SDS011;49037;41.898;25.004;2023-07-20T09:36:13;8.95;;;5.45;;
62931;SDS011;49037;41.898;25.004;2023-07-20T09:38:41;11.23;;;6.03;;
62931;SDS011;49037;41.898;25.004;2023-07-20T09:41:13;7.38;;;5.82;;
62931;SDS011;49037;41.898;25.004;2023-07-20T09:43:48;8.13;;;6.05;;
62931;SDS011;49037;41.898;25.004;2023-07-20T09:46:14;9.23;;;5.50;;
62931;SDS011;49037;41.898;25.004;2023-07-20T09:49:11;9.68;;;6.15;;
62931;SDS011;49037;41.898;25.004;2023-07-20T09:51:37;8.48;;;6.13;;
62931;SDS011;49037;41.898;25.004;2023-07-20T09:54:44;6.93;;;5.72;;
62931;SDS011;49037;41.898;25.004;2023-07-20T09:57:21;10.77;;;6.22;;
62931;SDS011;49037;41.898;25.004;2023-07-20T09:59:54;8.25;;;5.55;;
62931;SDS011;49037;41.898;25.004;2023-07-20T10:02:34;13.40;;;6.10;;
62931;SDS011;49037;41.898;25.004;2023-07-20T10:08:20;9.82;;;6.03;;
62931;SDS011;49037;41.898;25.004;2023-07-20T10:10:52;12.68;;;6.53;;
62931;SDS011;49037;41.898;25.004;2023-07-20T10:13:21;8.52;;;6.18;;
62931;SDS011;49037;41.898;25.004;2023-07-20T10:16:14;8.85;;;5.70;;
62931;SDS011;49037;41.898;25.004;2023-07-20T10:22:00;11.18;;;6.15;;
62931;SDS011;49037;41.898;25.004;2023-07-20T10:24:27;7.50;;;5.90;;
62931;SDS011;49037;41.898;25.004;2023-07-20T10:26:55;9.48;;;6.20;;
62931;SDS011;49037;41.898;25.004;2023-07-20T10:29:39;12.15;;;6.13;;
62931;SDS011;49037;41.898;25.004;2023-07-20T10:32:21;7.43;;;5.90;;
62931;SDS011;49037;41.898;25.004;2023-07-20T10:34:50;10.98;;;6.22;;
62931;SDS011;49037;41.898;25.004;2023-07-20T10:43:23;9.05;;;5.85;;
62931;SDS011;49037;41.898;25.004;2023-07-20T10:46:04;10.35;;;6.03;;
62931;SDS011;49037;41.898;25.004;2023-07-20T10:48:32;7.82;;;5.38;;
62931;SDS011;49037;41.898;25.004;2023-07-20T10:51:11;13.77;;;6.53;;
62931;SDS011;49037;41.898;25.004;2023-07-20T10:54:03;10.32;;;5.70;;
62931;SDS011;49037;41.898;25.004;2023-07-20T11:02:57;10.52;;;5.97;;
62931;SDS011;49037;41.898;25.004;2023-07-20T11:24:37;10.68;;;6.40;;
62931;SDS011;49037;41.898;25.004;2023-07-20T11:27:12;9.02;;;6.38;;
62931;SDS011;49037;41.898;25.004;2023-07-20T11:29:53;8.13;;;6.10;;
62931;SDS011;49037;41.898;25.004;2023-07-20T11:32:32;7.97;;;6.45;;
62931;SDS011;49037;41.898;25.004;2023-07-20T11:38:48;8.25;;;6.43;;
62931;SDS011;49037;41.898;25.004;2023-07-20T11:41:19;10.52;;;6.22;;
62931;SDS011;49037;41.898;25.004;2023-07-20T11:52:55;7.65;;;6.47;;
62931;SDS011;49037;41.898;25.004;2023-07-20T11:55:46;9.57;;;6.50;;
62931;SDS011;49037;41.898;25.004;2023-07-20T11:59:00;12.02;;;6.43;;
62931;SDS011;49037;41.898;25.004;2023-07-20T12:01:29;8.57;;;6.50;;
62931;SDS011;49037;41.898;25.004;2023-07-20T12:04:01;11.15;;;6.20;;
62931;SDS011;49037;41.898;25.004;2023-07-20T12:06:49;12.30;;;6.55;;
62931;SDS011;49037;41.898;25.004;2023-07-20T12:09:23;9.07;;;6.30;;
62931;SDS011;49037;41.898;25.004;2023-07-20T12:11:49;7.88;;;6.20;;
62931;SDS011;49037;41.898;25.004;2023-07-20T12:14:15;9.32;;;6.03;;
62931;SDS011;49037;41.898;25.004;2023-07-20T12:16:44;8.48;;;6.43;;
62931;SDS011;49037;41.898;25.004;2023-07-20T12:19:17;8.27;;;6.03;;
62931;SDS011;49037;41.898;25.004;2023-07-20T12:21:42;8.35;;;6.05;;
62931;SDS011;49037;41.898;25.004;2023-07-20T12:24:08;7.95;;;6.63;;
62931;SDS011;49037;41.898;25.004;2023-07-20T12:26:35;10.85;;;6.40;;
62931;SDS011;49037;41.898;25.004;2023-07-20T12:29:03;10.77;;;6.68;;
62931;SDS011;49037;41.898;25.004;2023-07-20T12:31:36;13.77;;;7.07;;
62931;SDS011;49037;41.898;25.004;2023-07-20T12:34:01;10.07;;;7.05;;
62931;SDS011;49037;41.898;25.004;2023-07-20T12:36:27;10.48;;;6.40;;
62931;SDS011;49037;41.898;25.004;2023-07-20T12:39:00;10.60;;;6.97;;
62931;SDS011;49037;41.898;25.004;2023-07-20T12:41:28;10.80;;;7.10;;
62931;SDS011;49037;41.898;25.004;2023-07-20T12:43:55;9.45;;;6.95;;
62931;SDS011;49037;41.898;25.004;2023-07-20T12:46:22;8.70;;;6.45;;
62931;SDS011;49037;41.898;25.004;2023-07-20T12:48:49;9.00;;;7.13;;
62931;SDS011;49037;41.898;25.004;2023-07-20T12:51:14;10.63;;;6.90;;
62931;SDS011;49037;41.898;25.004;2023-07-20T12:53:40;9.50;;;6.75;;
62931;SDS011;49037;41.898;25.004;2023-07-20T12:56:08;9.90;;;7.07;;
62931;SDS011;49037;41.898;25.004;2023-07-20T12:58:36;10.57;;;6.50;;
62931;SDS011;49037;41.898;25.004;2023-07-20T13:01:10;10.77;;;6.90;;
62931;SDS011;49037;41.898;25.004;2023-07-20T13:03:37;9.48;;;6.68;;
62931;SDS011;49037;41.898;25.004;2023-07-20T13:06:08;8.50;;;6.68;;
62931;SDS011;49037;41.898;25.004;2023-07-20T13:08:37;9.15;;;6.30;;
62931;SDS011;49037;41.898;25.004;2023-07-20T13:11:13;10.50;;;6.85;;
62931;SDS011;49037;41.898;25.004;2023-07-20T13:13:41;10.50;;;7.10;;
62931;SDS011;49037;41.898;25.004;2023-07-20T13:16:09;11.70;;;6.93;;
62931;SDS011;49037;41.898;25.004;2023-07-20T13:18:43;9.43;;;7.00;;
62931;SDS011;49037;41.898;25.004;2023-07-20T13:21:14;12.85;;;7.15;;
62931;SDS011;49037;41.898;25.004;2023-07-20T13:23:50;11.00;;;7.85;;
62931;SDS011;49037;41.898;25.004;2023-07-20T13:26:31;12.25;;;7.28;;
62931;SDS011;49037;41.898;25.004;2023-07-20T13:29:01;10.80;;;7.15;;
62931;SDS011;49037;41.898;25.004;2023-07-20T13:31:34;11.13;;;7.25;;
62931;SDS011;49037;41.898;25.004;2023-07-20T13:34:00;10.73;;;7.25;;
62931;SDS011;49037;41.898;25.004;2023-07-20T13:36:25;8.55;;;6.47;;
62931;SDS011;49037;41.898;25.004;2023-07-20T13:38:51;9.15;;;6.63;;
62931;SDS011;49037;41.898;25.004;2023-07-20T13:41:16;12.05;;;7.25;;
62931;SDS011;49037;41.898;25.004;2023-07-20T13:43:42;7.80;;;6.78;;
62931;SDS011;49037;41.898;25.004;2023-07-20T13:46:07;10.27;;;6.70;;
62931;SDS011;49037;41.898;25.004;2023-07-20T13:48:33;8.60;;;6.43;;
62931;SDS011;49037;41.898;25.004;2023-07-20T13:50:58;9.55;;;6.72;;
62931;SDS011;49037;41.898;25.004;2023-07-20T13:53:24;10.80;;;6.95;;
62931;SDS011;49037;41.898;25.004;2023-07-20T13:55:50;11.43;;;7.00;;
62931;SDS011;49037;41.898;25.004;2023-07-20T14:00:46;10.60;;;7.15;;
62931;SDS011;49037;41.898;25.004;2023-07-20T14:03:12;12.80;;;6.95;;
62931;SDS011;49037;41.898;25.004;2023-07-20T14:05:37;11.07;;;7.18;;
62931;SDS011;49037;41.898;25.004;2023-07-20T14:08:02;13.75;;;7.05;;
62931;SDS011;49037;41.898;25.004;2023-07-20T14:10:28;9.40;;;7.13;;
62931;SDS011;49037;41.898;25.004;2023-07-20T14:12:54;13.93;;;7.07;;
62931;SDS011;49037;41.898;25.004;2023-07-20T14:15:19;10.23;;;6.60;;
62931;SDS011;49037;41.898;25.004;2023-07-20T14:17:45;10.18;;;7.05;;
62931;SDS011;49037;41.898;25.004;2023-07-20T14:20:11;10.57;;;6.95;;
62931;SDS011;49037;41.898;25.004;2023-07-20T14:22:44;10.20;;;6.45;;
62931;SDS011;49037;41.898;25.004;2023-07-20T14:25:10;10.57;;;7.13;;
62931;SDS011;49037;41.898;25.004;2023-07-20T14:27:35;11.07;;;7.28;;
62931;SDS011;49037;41.898;25.004;2023-07-20T14:30:00;9.45;;;6.85;;
62931;SDS011;49037;41.898;25.004;2023-07-20T14:32:26;10.82;;;7.45;;
62931;SDS011;49037;41.898;25.004;2023-07-20T14:34:51;9.95;;;7.03;;
62931;SDS011;49037;41.898;25.004;2023-07-20T14:37:17;9.00;;;6.78;;
62931;SDS011;49037;41.898;25.004;2023-07-20T14:39:46;9.20;;;7.07;;
62931;SDS011;49037;41.898;25.004;2023-07-20T14:42:11;11.70;;;7.53;;
62931;SDS011;49037;41.898;25.004;2023-07-20T14:44:39;9.63;;;7.07;;
62931;SDS011;49037;41.898;25.004;2023-07-20T14:47:07;9.20;;;6.75;;
62931;SDS011;49037;41.898;25.004;2023-07-20T14:49:33;9.77;;;7.38;;
62931;SDS011;49037;41.898;25.004;2023-07-20T14:51:58;13.38;;;7.10;;
62931;SDS011;49037;41.898;25.004;2023-07-20T14:54:24;9.30;;;6.78;;
62931;SDS011;49037;41.898;25.004;2023-07-20T14:56:50;13.32;;;7.53;;
62931;SDS011;49037;41.898;25.004;2023-07-20T14:59:22;13.95;;;7.22;;
62931;SDS011;49037;41.898;25.004;2023-07-20T15:01:47;9.43;;;6.63;;
62931;SDS011;49037;41.898;25.004;2023-07-20T15:04:16;12.80;;;7.00;;
62931;SDS011;49037;41.898;25.004;2023-07-20T15:09:14;10.48;;;6.63;;
62931;SDS011;49037;41.898;25.004;2023-07-20T15:11:39;12.88;;;6.22;;
62931;SDS011;49037;41.898;25.004;2023-07-20T15:14:05;11.82;;;7.82;;
62931;SDS011;49037;41.898;25.004;2023-07-20T15:16:30;9.88;;;6.72;;
62931;SDS011;49037;41.898;25.004;2023-07-20T15:18:56;10.45;;;6.63;;
62931;SDS011;49037;41.898;25.004;2023-07-20T15:21:21;10.65;;;7.03;;
62931;SDS011;49037;41.898;25.004;2023-07-20T15:23:53;11.98;;;7.18;;
62931;SDS011;49037;41.898;25.004;2023-07-20T15:26:38;9.25;;;6.70;;
62931;SDS011;49037;41.898;25.004;2023-07-20T15:29:14;8.20;;;6.05;;
62931;SDS011;49037;41.898;25.004;2023-07-20T15:31:43;11.80;;;7.25;;
62931;SDS011;49037;41.898;25.004;2023-07-20T15:34:10;9.98;;;7.00;;
62931;SDS011;49037;41.898;25.004;2023-07-20T15:36:38;10.65;;;7.05;;
62931;SDS011;49037;41.898;25.004;2023-07-20T15:39:06;10.93;;;6.75;;
62931;SDS011;49037;41.898;25.004;2023-07-20T15:41:31;11.25;;;6.80;;
62931;SDS011;49037;41.898;25.004;2023-07-20T15:43:57;10.93;;;7.70;;
62931;SDS011;49037;41.898;25.004;2023-07-20T15:48:52;11.43;;;7.18;;
62931;SDS011;49037;41.898;25.004;2023-07-20T15:51:26;9.00;;;6.38;;
62931;SDS011;49037;41.898;25.004;2023-07-20T15:53:52;11.20;;;6.68;;
62931;SDS011;49037;41.898;25.004;2023-07-20T15:56:37;9.05;;;6.20;;
62931;SDS011;49037;41.898;25.004;2023-07-20T15:59:04;12.40;;;7.20;;
62931;SDS011;49037;41.898;25.004;2023-07-20T16:01:31;10.77;;;6.35;;
62931;SDS011;49037;41.898;25.004;2023-07-20T16:03:58;9.40;;;6.22;;
62931;SDS011;49037;41.898;25.004;2023-07-20T16:06:24;11.25;;;6.60;;
62931;SDS011;49037;41.898;25.004;2023-07-20T16:09:09;8.75;;;6.40;;
62931;SDS011;49037;41.898;25.004;2023-07-20T16:11:35;12.57;;;7.13;;
62931;SDS011;49037;41.898;25.004;2023-07-20T16:14:01;11.52;;;6.70;;
62931;SDS011;49037;41.898;25.004;2023-07-20T16:16:29;11.68;;;7.18;;
62931;SDS011;49037;41.898;25.004;2023-07-20T16:19:08;8.48;;;6.30;;
62931;SDS011;49037;41.898;25.004;2023-07-20T16:21:37;8.88;;;6.47;;
62931;SDS011;49037;41.898;25.004;2023-07-20T16:24:02;10.77;;;6.70;;
62931;SDS011;49037;41.898;25.004;2023-07-20T17:10:30;11.15;;;6.60;;
62931;SDS011;49037;41.898;25.004;2023-07-20T17:17:43;10.93;;;6.00;;
62931;SDS011;49037;41.898;25.004;2023-07-20T17:20:48;12.57;;;6.07;;
62931;SDS011;49037;41.898;25.004;2023-07-20T17:23:38;9.27;;;5.85;;
62931;SDS011;49037;41.898;25.004;2023-07-20T20:04:27;10.63;;;6.65;;
62931;SDS011;49037;41.898;25.004;2023-07-20T20:07:25;8.68;;;5.80;;
62931;SDS011;49037;41.898;25.004;2023-07-20T20:40:56;10.50;;;6.22;;
62931;SDS011;49037;41.898;25.004;2023-07-20T20:43:23;8.98;;;6.18;;
62931;SDS011;49037;41.898;25.004;2023-07-20T20:46:04;12.13;;;7.05;;
62931;SDS011;49037;41.898;25.004;2023-07-20T21:09:16;9.15;;;6.13;;
62931;SDS011;49037;41.898;25.004;2023-07-20T21:18:45;10.50;;;6.32;;
62931;SDS011;49037;41.898;25.004;2023-07-20T21:21:11;11.05;;;6.30;;
62931;SDS011;49037;41.898;25.004;2023-07-20T21:37:47;10.30;;;7.00;;
62931;SDS011;49037;41.898;25.004;2023-07-20T21:55:20;10.50;;;5.53;;
62931;SDS011;49037;41.898;25.004;2023-07-20T21:57:49;10.20;;;6.10;;
62931;SDS011;49037;41.898;25.004;2023-07-20T22:00:18;9.73;;;6.13;;
62931;SDS011;49037;41.898;25.004;2023-07-20T22:15:15;11.02;;;5.93;;
62931;SDS011;49037;41.898;25.004;2023-07-20T22:17:49;8.45;;;6.25;;
62931;SDS011;49037;41.898;25.004;2023-07-20T22:27:19;11.80;;;6.18;;
62931;SDS011;49037;41.898;25.004;2023-07-20T23:14:49;8.63;;;5.35;;
62931;SDS011;49037;41.898;25.004;2023-07-20T23:17:34;8.00;;;4.95;;
62931;SDS011;49037;41.898;25.004;2023-07-20T23:25:54;7.28;;;4.50;;
62931;SDS011;49037;41.898;25.004;2023-07-20T23:28:54;8.82;;;5.13;;
62931;SDS011;49037;41.898;25.004;2023-07-20T23:34:18;10.05;;;5.45;;
